Time;durP1;ratioP1;P1;durP2;ratioP2;P2;SDS_P1;SDS_P2;PMS_P1;PMS_P2;Temp;Humidity;BMP_temperature;BMP_pressure;BME280_temperature;BME280_humidity;BME280_pressure;Samples;Min_cycle;Max_cycle;Signal;HPM_P1;HPM_P2
2023/01/01 00:00:55;;;;;;;;;;;;;;;0.38;91.20;99354.50;4932200;28;19930;-66
2023/01/01 00:03:21;;;;;;;;;;;;;;;0.38;91.37;99351.81;4937416;28;19970;-66
2023/01/01 00:05:48;;;;;;;;;;;;;;;0.39;91.58;99361.53;4943276;28;19990;-66
2023/01/01 00:08:14;;;;;;;;;;;;;;;0.40;91.85;99371.25;4944025;28;19966;-66
2023/01/01 00:10:40;;;;;;;;;;;;;;;0.36;91.99;99361.13;4942966;28;20005;-68
2023/01/01 00:13:05;;;;;;;;;;;;;;;0.36;91.98;99364.66;4942587;28;19934;-68
2023/01/01 00:15:32;;;;;;;;;;;;;;;0.42;92.17;99357.59;4943586;28;20383;-70
2023/01/01 00:17:57;;;;;;;;;;;;;;;0.46;92.36;99349.88;4927755;29;20394;-70
2023/01/01 00:20:24;;;;;;;;;;;;;;;0.48;92.41;99359.38;4946390;28;19962;-70
2023/01/01 00:22:51;;;;;;;;;;;;;;;0.47;92.40;99355.06;4924130;29;20058;-71
2023/01/01 00:25:17;;;;;;;;;;;;;;;0.46;92.33;99352.56;4924545;29;19938;-70
2023/01/01 00:27:42;;;;;;;;;;;;;;;0.48;92.63;99345.13;4929955;29;19993;-69
2023/01/01 00:30:09;;;;;;;;;;;;;;;0.47;92.73;99340.75;4932165;29;20408;-70
2023/01/01 00:32:35;;;;;;;;;;;;;;;0.43;92.86;99335.03;4941753;28;19934;-71
2023/01/01 00:35:01;;;;;;;;;;;;;;;0.39;92.97;99321.19;4950095;28;19938;-71
2023/01/01 00:37:28;;;;;;;;;;;;;;;0.36;93.23;99328.84;4949390;28;19934;-71
2023/01/01 00:39:55;;;;;;;;;;;;;;;0.40;93.48;99330.91;4950378;28;19930;-71
2023/01/01 00:42:21;;;;;;;;;;;;;;;0.38;93.48;99324.91;4908904;29;20322;-70
2023/01/01 00:44:47;;;;;;;;;;;;;;;0.42;93.55;99317.25;4932710;29;19930;-70
2023/01/01 00:47:12;;;;;;;;;;;;;;;0.44;93.31;99303.53;4941233;28;19998;-70
2023/01/01 00:49:38;;;;;;;;;;;;;;;0.44;93.59;99296.31;4936603;28;19930;-71
2023/01/01 00:52:04;;;;;;;;;;;;;;;0.47;93.44;99284.28;4942671;28;19935;-70
2023/01/01 00:54:30;;;;;;;;;;;;;;;0.44;93.18;99282.88;4950790;28;19930;-70
2023/01/01 00:56:57;;;;;;;;;;;;;;;0.44;93.26;99274.78;4949723;28;20540;-70
2023/01/01 00:59:23;;;;;;;;;;;;;;;0.47;93.17;99260.06;4931767;29;20276;-70
2023/01/01 01:01:49;;;;;;;;;;;;;;;0.43;93.32;99267.78;4928303;29;20002;-71
2023/01/01 01:04:14;;;;;;;;;;;;;;;0.39;93.42;99259.31;4911053;29;20026;-71
2023/01/01 01:06:40;;;;;;;;;;;;;;;0.37;93.54;99250.66;4928686;29;19931;-71
2023/01/01 01:09:06;;;;;;;;;;;;;;;0.32;93.79;99233.53;4934164;28;19930;-71
2023/01/01 01:11:32;;;;;;;;;;;;;;;0.34;94.12;99232.25;4946033;28;20424;-71
2023/01/01 01:13:59;;;;;;;;;;;;;;;0.38;94.07;99230.78;4946154;28;19930;-71
2023/01/01 01:16:26;;;;;;;;;;;;;;;0.43;94.17;99230.13;4950521;28;19935;-71
2023/01/01 01:18:53;;;;;;;;;;;;;;;0.46;93.79;99229.66;4948383;28;19953;-71
2023/01/01 01:21:21;;;;;;;;;;;;;;;0.43;93.56;99230.13;4946712;28;19985;-71
2023/01/01 01:23:47;;;;;;;;;;;;;;;0.42;93.53;99225.78;4949206;28;19977;-66
2023/01/01 01:26:14;;;;;;;;;;;;;;;0.40;93.75;99226.00;4950156;28;19997;-66
2023/01/01 01:28:40;;;;;;;;;;;;;;;0.40;93.70;99219.81;4947907;28;19989;-66
2023/01/01 01:31:07;;;;;;;;;;;;;;;0.40;94.08;99198.28;4945299;28;20317;-67
2023/01/01 01:33:34;;;;;;;;;;;;;;;0.45;94.13;99192.22;4945541;28;20589;-66
2023/01/01 01:36:00;;;;;;;;;;;;;;;0.50;94.05;99200.44;4951539;28;20046;-67
2023/01/01 01:38:26;;;;;;;;;;;;;;;0.52;93.71;99203.75;4946860;28;20395;-70
2023/01/01 01:40:52;;;;;;;;;;;;;;;0.52;93.70;99187.59;4946908;28;19931;-70
2023/01/01 01:43:20;;;;;;;;;;;;;;;0.54;93.46;99190.88;4928386;29;20051;-70
2023/01/01 01:45:46;;;;;;;;;;;;;;;0.52;93.24;99184.91;4931247;29;19935;-71
2023/01/01 01:48:13;;;;;;;;;;;;;;;0.52;93.35;99180.31;4928655;29;19986;-71
2023/01/01 01:50:40;;;;;;;;;;;;;;;0.53;93.30;99183.84;4928669;29;19937;-71
2023/01/01 01:53:07;;;;;;;;;;;;;;;0.56;93.21;99197.69;4927821;29;19934;-70
2023/01/01 01:55:34;;;;;;;;;;;;;;;0.61;93.12;99196.19;4930123;29;20444;-70
2023/01/01 01:58:00;;;;;;;;;;;;;;;0.60;93.01;99179.22;4931022;29;20411;-71
2023/01/01 02:00:26;;;;;;;;;;;;;;;0.60;93.07;99191.84;4930699;29;19931;-71
2023/01/01 02:02:55;;;;;;;;;;;;;;;0.59;93.23;99192.91;4926978;29;20362;-66
2023/01/01 02:05:23;;;;;;;;;;;;;;;0.63;93.16;99178.78;4910880;29;20318;-66
2023/01/01 02:07:50;;;;;;;;;;;;;;;0.64;93.03;99177.75;4925935;29;19931;-66
2023/01/01 02:10:15;;;;;;;;;;;;;;;0.66;93.10;99172.13;4924996;29;19931;-65
2023/01/01 02:12:41;;;;;;;;;;;;;;;0.69;92.95;99160.91;4928892;29;19974;-66
2023/01/01 02:15:29;;;;;;;;;;;;;;;0.68;92.62;99170.84;4913321;29;20353;-66
2023/01/01 02:17:59;;;;;;;;;;;;;;;0.69;92.44;99175.19;4928822;29;19931;-65
2023/01/01 02:20:32;;;;;;;;;;;;;;;0.68;92.52;99162.78;4927653;29;20318;-65
2023/01/01 02:23:14;;;;;;;;;;;;;;;0.73;92.38;99164.81;4925907;29;19938;-71
2023/01/01 02:25:47;;;;;;;;;;;;;;;0.75;92.11;99156.47;4956910;28;20263;-70
2023/01/01 02:28:18;;;;;;;;;;;;;;;0.77;92.11;99154.38;4927153;29;19953;-70
2023/01/01 02:30:46;;;;;;;;;;;;;;;0.76;91.88;99148.19;4927427;29;19931;-70
2023/01/01 02:33:15;;;;;;;;;;;;;;;0.81;91.78;99139.44;4926533;29;19938;-71
2023/01/01 02:35:44;;;;;;;;;;;;;;;0.85;91.76;99138.75;4947995;28;20406;-70
2023/01/01 02:38:12;;;;;;;;;;;;;;;0.87;91.64;99159.25;4926070;29;20034;-70
2023/01/01 02:40:40;;;;;;;;;;;;;;;0.85;91.49;99146.81;4936802;28;19953;-71
2023/01/01 02:43:06;;;;;;;;;;;;;;;0.84;91.46;99134.41;4965775;28;19985;-70
2023/01/01 02:45:32;;;;;;;;;;;;;;;0.82;91.71;99124.94;4951881;28;19930;-70
2023/01/01 02:48:04;;;;;;;;;;;;;;;0.82;91.96;99119.56;4928405;29;19930;-70
2023/01/01 02:50:30;;;;;;;;;;;;;;;0.80;91.94;99133.22;4928864;29;19937;-70
2023/01/01 02:53:01;;;;;;;;;;;;;;;0.77;91.91;99141.75;4927267;29;19931;-70
2023/01/01 02:55:31;;;;;;;;;;;;;;;0.81;92.21;99128.69;4928637;29;19931;-70
2023/01/01 03:00:17;;;;;;;;;;;;;;;0.83;91.91;99119.31;4925255;29;19931;-70
2023/01/01 03:00:47;;;;;;;;;;;;;;;0.84;91.83;99109.38;4925638;29;19998;-70
2023/01/01 03:03:18;;;;;;;;;;;;;;;0.82;91.50;99101.53;4927732;29;19931;-70
2023/01/01 03:08:36;;;;;;;;;;;;;;;0.74;91.61;99087.56;4945601;28;19977;-70
2023/01/01 03:11:03;;;;;;;;;;;;;;;0.73;91.70;99100.22;4945439;28;19977;-70
2023/01/01 03:13:34;;;;;;;;;;;;;;;0.75;91.91;99099.97;4945605;28;20419;-70
2023/01/01 03:16:03;;;;;;;;;;;;;;;0.75;92.00;99095.41;4944086;28;19931;-70
2023/01/01 03:18:33;;;;;;;;;;;;;;;0.80;91.90;99081.28;4944794;28;19934;-70
2023/01/01 03:21:01;;;;;;;;;;;;;;;0.80;91.65;99079.41;4943801;28;19937;-70
2023/01/01 03:23:30;;;;;;;;;;;;;;;0.75;91.93;99081.97;4943801;28;19939;-70
2023/01/01 03:25:59;;;;;;;;;;;;;;;0.77;91.79;99082.56;4944908;28;19954;-69
2023/01/01 03:28:27;;;;;;;;;;;;;;;0.78;91.78;99086.88;4942731;28;19954;-70
2023/01/01 03:30:53;;;;;;;;;;;;;;;0.78;91.98;99076.13;4925841;28;20439;-70
2023/01/01 03:33:22;;;;;;;;;;;;;;;0.85;92.05;99065.25;4933876;28;19962;-70
2023/01/01 03:35:51;;;;;;;;;;;;;;;0.85;91.90;99057.19;4926060;29;20029;-70
2023/01/01 03:38:18;;;;;;;;;;;;;;;0.88;91.96;99059.41;4926317;29;20387;-71
2023/01/01 03:40:45;;;;;;;;;;;;;;;0.87;91.98;99051.59;4925282;29;20548;-70
2023/01/01 03:43:15;;;;;;;;;;;;;;;0.87;91.87;99038.13;4927882;29;19974;-69
2023/01/01 03:45:42;;;;;;;;;;;;;;;0.86;92.01;99039.97;4925993;29;20384;-70
2023/01/01 03:48:09;;;;;;;;;;;;;;;0.84;92.14;99021.34;4927475;29;19931;-70
2023/01/01 03:50:39;;;;;;;;;;;;;;;0.81;92.15;99026.41;4926003;29;19939;-65
2023/01/01 03:53:09;;;;;;;;;;;;;;;0.82;92.35;99014.59;4924814;29;19974;-69
2023/01/01 03:55:36;;;;;;;;;;;;;;;0.87;92.44;99003.94;4925507;29;20407;-70
2023/01/01 03:58:07;;;;;;;;;;;;;;;0.89;92.16;99004.53;4925873;29;19986;-70
2023/01/01 04:00:34;;;;;;;;;;;;;;;0.86;92.17;98991.53;4929949;28;19930;-70
2023/01/01 04:03:02;;;;;;;;;;;;;;;0.83;92.32;98992.81;4936319;28;20428;-65
2023/01/01 04:05:29;;;;;;;;;;;;;;;0.85;92.50;98996.06;4945008;28;19985;-65
2023/01/01 04:07:55;;;;;;;;;;;;;;;0.87;92.47;99003.13;4944544;28;19935;-65
2023/01/01 04:10:23;;;;;;;;;;;;;;;0.85;92.54;99001.47;4942923;28;19937;-65
2023/01/01 04:12:50;;;;;;;;;;;;;;;0.92;92.66;99011.31;4943860;28;19930;-65
2023/01/01 04:15:17;;;;;;;;;;;;;;;0.95;92.49;99010.84;4942902;28;19930;-65
2023/01/01 04:17:42;;;;;;;;;;;;;;;0.95;92.48;99002.78;4946583;28;19934;-65
2023/01/01 04:20:09;;;;;;;;;;;;;;;0.94;92.49;98996.59;4944223;28;20467;-66
2023/01/01 04:22:35;;;;;;;;;;;;;;;0.92;92.58;99001.38;4926516;29;20354;-65
2023/01/01 04:25:00;;;;;;;;;;;;;;;0.91;92.52;99001.63;4926511;29;20042;-65
2023/01/01 04:27:27;;;;;;;;;;;;;;;0.85;92.79;99003.34;4922879;29;19954;-65
2023/01/01 04:29:53;;;;;;;;;;;;;;;0.82;93.09;98998.44;4931838;28;19934;-65
2023/01/01 04:32:19;;;;;;;;;;;;;;;0.84;93.39;98999.81;4934567;28;19930;-65
2023/01/01 04:34:45;;;;;;;;;;;;;;;0.84;93.42;98982.88;4924878;29;19935;-65
2023/01/01 04:37:10;;;;;;;;;;;;;;;0.86;93.68;98975.38;4924991;29;19937;-67
2023/01/01 04:39:36;;;;;;;;;;;;;;;0.88;93.67;98978.66;4924850;29;19931;-65
2023/01/01 04:42:02;;;;;;;;;;;;;;;0.80;93.33;98963.66;4927155;28;19934;-66
2023/01/01 04:44:29;;;;;;;;;;;;;;;0.91;93.49;98975.50;4924597;29;19931;-65
2023/01/01 04:46:54;;;;;;;;;;;;;;;0.87;93.58;98971.63;4928514;29;20002;-66
2023/01/01 04:49:20;;;;;;;;;;;;;;;0.81;93.87;98984.13;4924825;29;19935;-65
2023/01/01 04:51:46;;;;;;;;;;;;;;;0.82;94.18;98979.59;4924890;29;19931;-70
2023/01/01 04:54:12;;;;;;;;;;;;;;;0.82;94.33;98984.97;4925754;28;20104;-70
2023/01/01 04:56:37;;;;;;;;;;;;;;;0.84;94.57;98980.19;4926067;29;19958;-70
2023/01/01 04:59:03;;;;;;;;;;;;;;;0.84;94.53;98975.59;4926087;29;19931;-70
2023/01/01 05:01:31;;;;;;;;;;;;;;;0.84;94.39;98955.94;4924896;29;20165;-70
2023/01/01 05:03:57;;;;;;;;;;;;;;;0.82;94.47;98950.78;4936045;28;19938;-70
2023/01/01 05:06:24;;;;;;;;;;;;;;;0.85;94.51;98969.16;4931738;28;19930;-71
2023/01/01 05:08:51;;;;;;;;;;;;;;;0.88;94.30;98967.09;4925386;29;19931;-70
2023/01/01 05:11:18;;;;;;;;;;;;;;;0.87;94.20;98962.75;4923793;29;20296;-70
2023/01/01 05:13:45;;;;;;;;;;;;;;;0.88;94.10;98967.88;4928603;29;19954;-70
2023/01/01 05:16:11;;;;;;;;;;;;;;;0.92;94.05;98968.25;4928949;29;19988;-70
2023/01/01 05:18:39;;;;;;;;;;;;;;;0.94;93.92;98961.59;4927807;29;20248;-70
2023/01/01 05:21:06;;;;;;;;;;;;;;;0.93;94.01;98962.63;4935121;28;19989;-70
2023/01/01 05:23:32;;;;;;;;;;;;;;;0.93;93.96;98953.75;4931573;29;19982;-70
2023/01/01 05:25:58;;;;;;;;;;;;;;;0.92;94.15;98957.50;4932057;29;20446;-70
2023/01/01 05:28:24;;;;;;;;;;;;;;;0.93;94.16;98965.31;4929673;29;19938;-70
2023/01/01 05:30:49;;;;;;;;;;;;;;;0.96;94.20;98955.97;4929241;29;19931;-70
2023/01/01 05:33:15;;;;;;;;;;;;;;;0.97;94.34;98957.59;4931685;29;20402;-70
2023/01/01 05:35:42;;;;;;;;;;;;;;;0.99;94.16;98956.31;4927795;29;19931;-70
2023/01/01 05:38:08;;;;;;;;;;;;;;;0.97;94.27;98953.06;4927560;29;19938;-70
2023/01/01 05:40:36;;;;;;;;;;;;;;;0.98;94.31;98953.84;4928451;29;19994;-70
2023/01/01 05:43:02;;;;;;;;;;;;;;;0.99;94.30;98956.31;4927281;29;20022;-70
2023/01/01 05:45:28;;;;;;;;;;;;;;;1.03;94.25;98969.31;4938392;28;20040;-70
2023/01/01 05:47:55;;;;;;;;;;;;;;;1.04;94.11;98961.03;4948091;28;19985;-70
2023/01/01 05:50:21;;;;;;;;;;;;;;;0.97;93.94;98952.22;4948926;28;20367;-71
2023/01/01 05:52:48;;;;;;;;;;;;;;;1.05;94.00;98954.59;4948141;28;19930;-70
2023/01/01 05:55:13;;;;;;;;;;;;;;;1.09;93.87;98949.53;4946242;28;20433;-70
2023/01/01 05:57:39;;;;;;;;;;;;;;;1.07;93.65;98944.41;4945794;28;19934;-70
2023/01/01 06:00:06;;;;;;;;;;;;;;;1.06;93.72;98931.16;4946131;28;20361;-70
2023/01/01 06:02:32;;;;;;;;;;;;;;;1.05;93.80;98916.06;4948232;28;19937;-71
2023/01/01 06:04:58;;;;;;;;;;;;;;;1.05;94.17;98922.28;4947402;28;19931;-71
2023/01/01 06:07:23;;;;;;;;;;;;;;;1.07;93.87;98916.63;4945304;28;19942;-70
2023/01/01 06:09:50;;;;;;;;;;;;;;;1.07;93.88;98917.47;4945572;28;20073;-76
2023/01/01 06:12:16;;;;;;;;;;;;;;;1.06;94.10;98921.22;4948610;28;19934;-71
2023/01/01 06:14:42;;;;;;;;;;;;;;;1.05;94.27;98916.88;4948577;28;20433;-71
2023/01/01 06:17:07;;;;;;;;;;;;;;;0.99;94.45;98915.94;4947528;28;19977;-71
2023/01/01 06:19:33;;;;;;;;;;;;;;;0.96;94.63;98912.88;4944857;28;19930;-66
2023/01/01 06:21:59;;;;;;;;;;;;;;;1.01;94.84;98912.19;4941419;28;20418;-67
2023/01/01 06:24:24;;;;;;;;;;;;;;;1.02;94.76;98909.28;4944534;28;19934;-65
2023/01/01 06:26:52;;;;;;;;;;;;;;;1.05;94.72;98916.06;4939917;29;19966;-66
2023/01/01 06:29:19;;;;;;;;;;;;;;;1.09;94.82;98903.75;4928508;29;19931;-65
2023/01/01 06:31:44;;;;;;;;;;;;;;;1.13;94.62;98899.56;4927205;29;19966;-65
2023/01/01 06:34:11;;;;;;;;;;;;;;;1.13;94.51;98899.56;4926110;29;19930;-65
2023/01/01 06:36:37;;;;;;;;;;;;;;;1.13;94.46;98897.66;4927670;29;19937;-65
2023/01/01 06:39:03;;;;;;;;;;;;;;;1.16;94.47;98892.88;4929481;29;19935;-66
2023/01/01 06:41:29;;;;;;;;;;;;;;;1.16;94.23;98885.63;4925870;29;19930;-65
2023/01/01 06:43:57;;;;;;;;;;;;;;;1.15;94.31;98883.97;4925689;29;19961;-66
2023/01/01 06:46:24;;;;;;;;;;;;;;;1.10;94.31;98884.69;4931090;29;19930;-65
2023/01/01 06:48:52;;;;;;;;;;;;;;;1.15;94.55;98883.16;4930150;29;20417;-66
2023/01/01 06:51:18;;;;;;;;;;;;;;;1.19;94.45;98879.75;4928849;29;19977;-65
2023/01/01 06:53:44;;;;;;;;;;;;;;;1.21;94.33;98877.63;4934795;28;20706;-65
2023/01/01 06:56:10;;;;;;;;;;;;;;;1.21;94.57;98871.44;4965290;28;19930;-66
2023/01/01 06:58:36;;;;;;;;;;;;;;;1.25;94.46;98873.44;4963693;28;19953;-65
2023/01/01 07:01:04;;;;;;;;;;;;;;;1.29;94.28;98867.56;4950131;28;19958;-67
2023/01/01 07:03:30;;;;;;;;;;;;;;;1.28;94.28;98864.06;4925083;29;20429;-66
2023/01/01 07:05:55;;;;;;;;;;;;;;;1.32;94.17;98849.06;4927808;29;19931;-66
2023/01/01 07:08:21;;;;;;;;;;;;;;;1.35;94.15;98835.13;4924729;29;20470;-66
2023/01/01 07:10:48;;;;;;;;;;;;;;;1.36;93.75;98833.25;4926402;29;19931;-65
2023/01/01 07:13:14;;;;;;;;;;;;;;;1.37;93.83;98837.56;4936177;28;19931;-65
2023/01/01 07:15:43;;;;;;;;;;;;;;;1.38;93.70;98847.28;4947278;28;20029;-65
2023/01/01 07:18:10;;;;;;;;;;;;;;;1.41;93.57;98846.84;4933597;29;20457;-66
2023/01/01 07:20:35;;;;;;;;;;;;;;;1.41;93.57;98844.13;4945527;28;19941;-66
2023/01/01 07:23:01;;;;;;;;;;;;;;;1.43;93.63;98844.72;4944080;28;19934;-66
2023/01/01 07:25:27;;;;;;;;;;;;;;;1.47;93.61;98834.25;4945387;28;19930;-67
2023/01/01 07:27:53;;;;;;;;;;;;;;;1.48;93.50;98836.72;4945427;28;19939;-65
2023/01/01 07:30:19;;;;;;;;;;;;;;;1.48;93.41;98844.81;4939575;28;20323;-66
2023/01/01 07:32:44;;;;;;;;;;;;;;;1.37;93.46;98833.00;4946167;28;19930;-66
2023/01/01 07:35:11;;;;;;;;;;;;;;;1.47;93.49;98842.34;4944178;28;19996;-66
2023/01/01 07:37:38;;;;;;;;;;;;;;;1.50;93.65;98847.28;4946416;28;19934;-66
2023/01/01 07:40:04;;;;;;;;;;;;;;;1.51;93.48;98862.38;4943665;28;20416;-65
2023/01/01 07:42:30;;;;;;;;;;;;;;;1.52;93.41;98859.44;4946907;28;20354;-65
2023/01/01 07:44:57;;;;;;;;;;;;;;;1.55;93.50;98848.19;4946660;28;20018;-66
2023/01/01 07:47:23;;;;;;;;;;;;;;;1.57;93.38;98844.44;4943531;28;20372;-67
2023/01/01 07:49:49;;;;;;;;;;;;;;;1.55;93.71;98818.53;4944972;28;19984;-65
2023/01/01 07:52:16;;;;;;;;;;;;;;;1.58;93.68;98835.31;4945821;28;19962;-65
2023/01/01 07:54:42;;;;;;;;;;;;;;;1.62;93.78;98831.88;4946184;28;19936;-66
2023/01/01 07:57:08;;;;;;;;;;;;;;;1.66;93.48;98800.72;4946266;28;20041;-66
2023/01/01 07:59:34;;;;;;;;;;;;;;;1.70;93.36;98809.94;4945401;28;20025;-66
2023/01/01 08:02:00;;;;;;;;;;;;;;;1.73;93.42;98811.34;4932809;29;19973;-66
2023/01/01 08:04:26;;;;;;;;;;;;;;;1.75;93.38;98803.84;4926309;28;19930;-66
2023/01/01 08:06:51;;;;;;;;;;;;;;;1.78;93.26;98806.03;4925852;29;19930;-66
2023/01/01 08:09:19;;;;;;;;;;;;;;;1.77;93.32;98807.09;4924918;29;19935;-66
2023/01/01 08:11:44;;;;;;;;;;;;;;;1.78;93.38;98797.97;4924739;29;19930;-66
2023/01/01 08:14:10;;;;;;;;;;;;;;;1.83;93.44;98791.84;4926349;29;20361;-65
2023/01/01 08:16:36;;;;;;;;;;;;;;;1.82;93.60;98785.63;4927767;29;20009;-65
2023/01/01 08:19:02;;;;;;;;;;;;;;;1.83;93.43;98799.94;4927238;29;19938;-66
2023/01/01 08:21:28;;;;;;;;;;;;;;;1.85;93.48;98792.41;4925113;29;19934;-66
2023/01/01 08:23:53;;;;;;;;;;;;;;;1.82;93.44;98785.63;4922835;29;20369;-66
2023/01/01 08:26:28;;;;;;;;;;;;;;;1.88;93.75;98796.53;4928644;28;20345;-66
2023/01/01 08:28:53;;;;;;;;;;;;;;;1.85;93.67;98800.50;4944876;28;20020;-65
2023/01/01 08:31:19;;;;;;;;;;;;;;;1.84;93.91;98801.56;4947688;28;19968;-66
2023/01/01 08:33:45;;;;;;;;;;;;;;;1.79;93.79;98796.91;4938528;28;20429;-65
2023/01/01 08:36:12;;;;;;;;;;;;;;;1.77;94.03;98792.78;4932457;28;19937;-65
2023/01/01 08:38:38;;;;;;;;;;;;;;;1.70;94.51;98791.06;4947964;28;19989;-66
2023/01/01 08:41:04;;;;;;;;;;;;;;;1.74;94.60;98787.91;4945037;28;19930;-65
2023/01/01 08:43:31;;;;;;;;;;;;;;;1.79;94.61;98780.72;4945024;28;20283;-66
2023/01/01 08:45:56;;;;;;;;;;;;;;;1.88;94.76;98785.72;4944750;28;19932;-66
2023/01/01 08:48:22;;;;;;;;;;;;;;;1.91;94.46;98769.88;4944294;28;20005;-66
2023/01/01 08:50:51;;;;;;;;;;;;;;;1.94;94.35;98763.19;4948109;28;19931;-66
2023/01/01 08:53:16;;;;;;;;;;;;;;;1.96;94.38;98761.88;4933262;29;19985;-66
2023/01/01 08:55:42;;;;;;;;;;;;;;;2.05;94.40;98764.16;4926170;29;19934;-65
2023/01/01 08:58:08;;;;;;;;;;;;;;;2.08;94.17;98767.19;4936025;28;19973;-70
2023/01/01 09:00:35;;;;;;;;;;;;;;;2.08;94.12;98756.41;4947724;28;19930;-70
2023/01/01 09:03:01;;;;;;;;;;;;;;;2.10;94.17;98770.47;4947909;28;19941;-70
2023/01/01 09:05:27;;;;;;;;;;;;;;;2.09;93.97;98759.91;4601200;28;9999976;-65
2023/01/01 09:07:52;;;;;;;;;;;;;;;2.11;93.99;98761.31;4944839;28;19934;-66
2023/01/01 09:10:18;;;;;;;;;;;;;;;2.12;94.22;98754.84;4926506;28;19938;-66
2023/01/01 09:12:44;;;;;;;;;;;;;;;2.12;94.18;98760.25;4927089;29;19931;-66
2023/01/01 09:15:13;;;;;;;;;;;;;;;2.11;94.26;98750.53;4925997;29;20038;-66
2023/01/01 09:17:40;;;;;;;;;;;;;;;2.15;94.42;98752.72;4924261;29;19931;-66
2023/01/01 09:20:06;;;;;;;;;;;;;;;2.20;94.50;98739.34;4930474;28;19941;-65
2023/01/01 09:22:32;;;;;;;;;;;;;;;2.28;94.35;98751.59;4925029;29;20295;-65
2023/01/01 09:24:58;;;;;;;;;;;;;;;2.28;94.36;98730.81;4928114;29;19930;-70
2023/01/01 09:27:24;;;;;;;;;;;;;;;2.34;94.09;98740.66;4929468;29;20483;-70
2023/01/01 09:29:50;;;;;;;;;;;;;;;2.36;94.04;98732.28;4928059;29;19942;-70
2023/01/01 09:32:17;;;;;;;;;;;;;;;2.39;94.09;98727.22;4918467;29;19997;-70
2023/01/01 09:34:44;;;;;;;;;;;;;;;2.41;94.03;98727.78;4924240;29;19957;-70
2023/01/01 09:37:10;;;;;;;;;;;;;;;2.42;93.95;98725.94;4940986;28;19970;-71
2023/01/01 09:39:36;;;;;;;;;;;;;;;2.38;93.91;98725.59;4923168;28;20410;-71
2023/01/01 09:42:07;;;;;;;;;;;;;;;2.42;93.88;98720.53;4927636;29;19931;-70
2023/01/01 09:44:48;;;;;;;;;;;;;;;2.41;94.04;98718.88;4932809;29;19974;-70
2023/01/01 09:47:20;;;;;;;;;;;;;;;2.43;94.13;98702.44;4926457;29;20462;-71
2023/01/01 09:49:49;;;;;;;;;;;;;;;2.47;94.13;98708.97;4931942;28;19986;-71
2023/01/01 09:52:15;;;;;;;;;;;;;;;2.44;94.12;98704.91;4946327;28;19934;-70
2023/01/01 09:54:43;;;;;;;;;;;;;;;2.42;94.26;98690.84;4937855;29;19938;-70
2023/01/01 09:57:11;;;;;;;;;;;;;;;2.45;94.11;98694.91;4929607;29;20509;-70
2023/01/01 09:59:39;;;;;;;;;;;;;;;2.49;94.28;98682.53;4932654;28;19945;-70
2023/01/01 10:02:11;;;;;;;;;;;;;;;2.51;94.24;98696.63;4933469;29;19959;-70
2023/01/01 10:04:47;;;;;;;;;;;;;;;2.51;94.30;98685.84;4929687;29;19931;-70
2023/01/01 10:07:18;;;;;;;;;;;;;;;2.51;94.09;98686.63;4925765;29;19930;-70
2023/01/01 10:09:49;;;;;;;;;;;;;;;2.51;94.17;98680.44;4928993;29;20387;-70
2023/01/01 10:12:20;;;;;;;;;;;;;;;2.53;94.29;98679.09;4932590;29;19930;-71
2023/01/01 10:14:49;;;;;;;;;;;;;;;2.55;94.20;98687.75;4940337;28;19934;-70
2023/01/01 10:17:16;;;;;;;;;;;;;;;2.52;94.31;98679.38;4944696;29;19931;-70
2023/01/01 10:19:44;;;;;;;;;;;;;;;2.50;94.19;98666.13;4946029;29;19930;-69
2023/01/01 10:22:12;;;;;;;;;;;;;;;2.60;94.09;98667.34;4946377;29;19930;-70
2023/01/01 10:24:42;;;;;;;;;;;;;;;2.59;94.21;98661.09;4943228;28;20438;-70
2023/01/01 10:27:12;;;;;;;;;;;;;;;2.59;94.13;98654.91;4926656;29;19959;-70
2023/01/01 10:29:43;;;;;;;;;;;;;;;2.58;94.28;98645.19;4926157;29;19953;-70
2023/01/01 10:32:18;;;;;;;;;;;;;;;2.64;94.36;98644.97;4925525;29;20072;-70
2023/01/01 10:34:44;;;;;;;;;;;;;;;2.68;94.12;98650.69;4926840;29;19930;-70
2023/01/01 10:37:10;;;;;;;;;;;;;;;2.73;93.99;98652.63;4946294;28;20393;-70
2023/01/01 10:39:36;;;;;;;;;;;;;;;2.80;94.02;98629.78;4946744;28;20286;-70
2023/01/01 10:42:04;;;;;;;;;;;;;;;2.78;93.84;98625.69;4944654;28;19930;-70
2023/01/01 10:44:31;;;;;;;;;;;;;;;2.82;93.90;98624.16;4945264;28;20036;-71
2023/01/01 10:46:58;;;;;;;;;;;;;;;2.84;93.72;98624.69;4937156;28;19931;-71
2023/01/01 10:49:23;;;;;;;;;;;;;;;2.83;93.75;98618.47;4928119;29;20037;-71
2023/01/01 10:51:50;;;;;;;;;;;;;;;2.82;93.71;98616.84;4927771;29;20383;-69
2023/01/01 10:54:28;;;;;;;;;;;;;;;2.79;93.73;98603.03;4927053;29;19935;-70
2023/01/01 10:56:53;;;;;;;;;;;;;;;2.79;93.86;98605.72;4929019;28;19941;-69
2023/01/01 10:59:34;;;;;;;;;;;;;;;2.86;93.91;98605.53;4926584;29;19990;-70
2023/01/01 11:02:13;;;;;;;;;;;;;;;2.90;93.70;98609.38;4928373;29;19934;-71
2023/01/01 11:04:39;;;;;;;;;;;;;;;2.94;93.62;98608.59;4933432;28;20318;-70
2023/01/01 11:07:05;;;;;;;;;;;;;;;2.98;93.53;98595.41;4945484;28;19931;-67
2023/01/01 11:09:31;;;;;;;;;;;;;;;3.01;93.38;98586.00;4946999;28;19930;-65
2023/01/01 11:11:58;;;;;;;;;;;;;;;3.02;93.25;98598.44;4946546;28;20041;-65
2023/01/01 11:14:25;;;;;;;;;;;;;;;3.01;93.15;98616.50;4945314;28;19996;-65
2023/01/01 11:16:53;;;;;;;;;;;;;;;3.02;93.32;98603.81;4931962;28;19930;-65
2023/01/01 11:19:21;;;;;;;;;;;;;;;3.04;93.31;98596.28;4926490;29;20488;-65
2023/01/01 11:21:47;;;;;;;;;;;;;;;3.05;93.37;98595.22;4926912;29;19931;-65
2023/01/01 11:24:17;;;;;;;;;;;;;;;3.05;93.34;98589.81;4946243;28;19937;-65
2023/01/01 11:26:43;;;;;;;;;;;;;;;3.03;93.51;98592.75;4927441;28;19969;-65
2023/01/01 11:29:17;;;;;;;;;;;;;;;3.01;93.71;98591.41;4944012;28;19970;-71
2023/01/01 11:31:45;;;;;;;;;;;;;;;2.99;93.98;98586.22;4927513;29;20321;-70
2023/01/01 11:34:19;;;;;;;;;;;;;;;2.98;94.32;98582.72;4928180;29;19936;-71
2023/01/01 11:36:45;;;;;;;;;;;;;;;2.96;94.45;98584.84;4925990;29;19931;-65
2023/01/01 11:39:18;;;;;;;;;;;;;;;2.97;94.91;98591.09;4926895;29;20053;-65
2023/01/01 11:41:46;;;;;;;;;;;;;;;3.00;94.90;98587.88;4925374;29;20292;-65
2023/01/01 11:44:21;;;;;;;;;;;;;;;3.02;95.05;98584.91;4923709;29;20584;-65
2023/01/01 11:46:46;;;;;;;;;;;;;;;3.01;95.22;98594.91;4922921;29;19931;-66
2023/01/01 11:49:21;;;;;;;;;;;;;;;3.00;95.27;98573.56;4924755;29;19931;-65
2023/01/01 11:51:47;;;;;;;;;;;;;;;3.01;95.59;98565.19;4924808;29;19938;-66
2023/01/01 11:54:22;;;;;;;;;;;;;;;3.03;95.65;98557.66;4940890;28;19931;-70
2023/01/01 11:56:51;;;;;;;;;;;;;;;3.04;95.73;98553.88;4951595;28;20323;-72
2023/01/01 11:59:20;;;;;;;;;;;;;;;3.06;95.62;98551.75;4950001;28;19934;-72
2023/01/01 12:01:47;;;;;;;;;;;;;;;3.09;95.70;98553.94;4950963;28;19930;-71
2023/01/01 12:04:18;;;;;;;;;;;;;;;3.09;95.58;98556.63;4957504;28;19981;-71
2023/01/01 12:06:46;;;;;;;;;;;;;;;3.07;95.46;98547.16;4957184;28;19931;-71
2023/01/01 12:09:14;;;;;;;;;;;;;;;3.07;95.59;98541.75;4953489;28;19930;-71
2023/01/01 12:11:49;;;;;;;;;;;;;;;3.09;95.86;98540.44;4951645;28;20446;-71
2023/01/01 12:14:21;;;;;;;;;;;;;;;3.09;95.78;98543.13;4957590;28;20298;-70
2023/01/01 12:16:51;;;;;;;;;;;;;;;3.09;95.85;98543.13;4933549;28;19930;-71
2023/01/01 12:19:21;;;;;;;;;;;;;;;2.91;95.97;98514.59;4956440;28;19977;-72
2023/01/01 12:21:50;;;;;;;;;;;;;;;3.10;96.25;98533.13;4954223;28;20028;-71
2023/01/01 12:24:17;;;;;;;;;;;;;;;3.13;96.37;98524.53;4949890;28;19953;-71
2023/01/01 12:26:50;;;;;;;;;;;;;;;3.12;96.22;98533.69;4947616;28;19934;-71
2023/01/01 12:29:31;;;;;;;;;;;;;;;3.13;96.35;98532.63;4955199;28;19936;-71
2023/01/01 12:32:02;;;;;;;;;;;;;;;3.16;96.29;98532.13;4956411;28;19930;-66
2023/01/01 12:34:32;;;;;;;;;;;;;;;3.16;96.29;98531.28;4963757;28;19941;-65
2023/01/01 12:37:03;;;;;;;;;;;;;;;3.15;96.32;98527.78;4963152;28;19930;-65
2023/01/01 12:39:43;;;;;;;;;;;;;;;3.16;96.33;98526.72;4951950;28;19930;-66
2023/01/01 12:42:14;;;;;;;;;;;;;;;3.18;96.19;98529.97;4949045;28;19930;-70
2023/01/01 12:44:43;;;;;;;;;;;;;;;3.16;96.21;98526.72;4957742;28;19930;-71
2023/01/01 12:47:13;;;;;;;;;;;;;;;3.15;96.13;98522.38;4956825;28;19945;-70
2023/01/01 12:49:46;;;;;;;;;;;;;;;3.18;96.42;98521.88;4935955;28;19970;-65
2023/01/01 12:52:24;;;;;;;;;;;;;;;3.23;96.42;98519.19;4948887;28;20410;-65
2023/01/01 12:55:09;;;;;;;;;;;;;;;3.27;96.44;98530.31;4951072;28;19930;-65
2023/01/01 12:57:38;;;;;;;;;;;;;;;3.25;96.36;98529.75;4954685;28;20036;-66
2023/01/01 13:00:15;;;;;;;;;;;;;;;3.26;96.35;98523.28;4959791;28;20025;-66
2023/01/01 13:02:46;;;;;;;;;;;;;;;3.30;96.36;98523.59;4952501;28;19930;-71